createdAt,value
2023-06-30T00:00:18.505Z,7.93
2023-06-30T00:02:54.031Z,7.75
2023-06-30T00:05:23.004Z,8.10
2023-06-30T00:07:56.791Z,7.28
2023-06-30T00:10:26.173Z,7.45
2023-06-30T00:12:54.830Z,7.60
2023-06-30T00:15:23.568Z,7.65
2023-06-30T00:17:54.456Z,8.10
2023-06-30T00:20:25.535Z,8.68
2023-06-30T00:22:54.258Z,8.98
2023-06-30T00:25:23.214Z,8.82
2023-06-30T00:27:51.812Z,9.50
2023-06-30T00:30:20.538Z,9.90
2023-06-30T00:32:51.635Z,9.85
2023-06-30T00:35:20.972Z,9.80
2023-06-30T00:37:50.158Z,9.80
2023-06-30T00:40:19.211Z,9.18
2023-06-30T00:42:48.892Z,8.18
2023-06-30T00:45:17.621Z,7.68
2023-06-30T00:47:46.556Z,6.78
2023-06-30T00:50:16.576Z,6.50
2023-06-30T00:52:46.872Z,6.47
2023-06-30T00:55:17.310Z,7.07
2023-06-30T00:57:46.152Z,6.70
2023-06-30T01:00:15.760Z,6.03
2023-06-30T01:03:03.367Z,11.00
2023-06-30T01:05:47.925Z,10.50
2023-06-30T01:08:31.693Z,7.25
2023-06-30T01:11:01.075Z,6.60
2023-06-30T01:13:31.702Z,5.40
2023-06-30T01:16:00.962Z,5.90
2023-06-30T01:18:34.596Z,6.78
2023-06-30T01:21:07.085Z,5.53
2023-06-30T01:23:40.994Z,4.30
2023-06-30T01:26:09.823Z,8.05
2023-06-30T01:28:40.306Z,4.50
2023-06-30T01:31:11.166Z,4.88
2023-06-30T01:33:43.039Z,8.02
2023-06-30T01:36:11.937Z,5.32
2023-06-30T01:38:40.537Z,4.80
2023-06-30T01:41:10.582Z,9.95
2023-06-30T01:43:41.896Z,4.15
2023-06-30T01:46:11.542Z,4.07
2023-06-30T01:48:42.335Z,7.10
2023-06-30T01:51:14.461Z,4.03
2023-06-30T01:53:43.397Z,3.92
2023-06-30T01:56:14.018Z,7.03
2023-06-30T01:58:42.678Z,3.95
2023-06-30T02:01:11.390Z,3.97
2023-06-30T02:03:40.379Z,4.10
2023-06-30T02:06:09.697Z,6.38
2023-06-30T02:08:38.558Z,3.65
2023-06-30T02:11:07.409Z,3.20
2023-06-30T02:13:36.002Z,4.13
2023-06-30T02:16:05.139Z,3.30
2023-06-30T02:18:33.916Z,3.30
2023-06-30T02:21:02.902Z,3.00
2023-06-30T02:23:31.998Z,2.90
2023-06-30T02:26:03.776Z,3.08
2023-06-30T02:28:32.677Z,3.88
2023-06-30T02:31:01.663Z,4.18
2023-06-30T02:33:30.556Z,3.03
2023-06-30T02:35:59.537Z,2.60
2023-06-30T02:38:34.557Z,2.60
2023-06-30T02:41:03.220Z,3.33
2023-06-30T02:43:31.988Z,3.70
2023-06-30T02:46:01.020Z,4.10
2023-06-30T02:48:31.072Z,4.00
2023-06-30T02:51:02.456Z,4.22
2023-06-30T02:53:31.833Z,4.53
2023-06-30T02:56:00.433Z,6.32
2023-06-30T02:58:30.184Z,4.47
2023-06-30T03:00:59.041Z,5.53
2023-06-30T03:03:28.070Z,4.45
2023-06-30T03:05:57.999Z,4.10
2023-06-30T03:08:28.540Z,4.72
2023-06-30T03:10:57.575Z,3.85
2023-06-30T03:13:27.640Z,3.95
2023-06-30T03:15:56.531Z,3.50
2023-06-30T03:18:25.911Z,3.47
2023-06-30T03:20:54.805Z,3.10
2023-06-30T03:23:23.999Z,3.50
2023-06-30T03:25:52.917Z,4.00
2023-06-30T03:28:22.700Z,4.13
2023-06-30T03:30:52.379Z,5.30
2023-06-30T03:33:23.555Z,6.40
2023-06-30T03:35:54.081Z,5.60
2023-06-30T03:38:23.223Z,5.55
2023-06-30T03:40:55.216Z,5.10
2023-06-30T03:43:25.784Z,4.40
2023-06-30T03:45:55.454Z,4.30
2023-06-30T03:48:25.216Z,4.57
2023-06-30T03:50:57.492Z,4.20
2023-06-30T03:53:26.314Z,4.65
2023-06-30T03:55:55.241Z,3.90
2023-06-30T03:58:24.200Z,4.88
2023-06-30T04:00:53.138Z,5.03
2023-06-30T04:03:24.185Z,4.32
2023-06-30T04:05:55.130Z,2.60
2023-06-30T04:08:24.148Z,2.42
2023-06-30T04:10:53.661Z,2.35
2023-06-30T04:13:23.238Z,2.30
2023-06-30T04:15:52.223Z,2.42
2023-06-30T04:18:21.218Z,2.78
2023-06-30T04:20:50.049Z,2.60
2023-06-30T04:23:19.026Z,2.22
2023-06-30T04:25:50.459Z,2.58
2023-06-30T04:28:19.489Z,2.50
2023-06-30T04:30:49.100Z,2.67
2023-06-30T04:33:18.079Z,2.40
2023-06-30T04:35:47.376Z,2.58
2023-06-30T04:38:16.744Z,1.95
2023-06-30T04:40:45.702Z,2.25
2023-06-30T04:43:15.066Z,2.25
2023-06-30T04:45:45.046Z,2.70
2023-06-30T04:48:14.138Z,2.30
2023-06-30T04:50:43.083Z,1.90
2023-06-30T04:53:12.223Z,2.22
2023-06-30T04:55:41.124Z,2.13
2023-06-30T04:58:10.026Z,2.83
2023-06-30T05:00:39.028Z,2.88
2023-06-30T05:03:07.924Z,2.78
2023-06-30T05:05:36.958Z,2.50
2023-06-30T05:08:06.024Z,2.40
2023-06-30T05:10:37.159Z,2.08
2023-06-30T05:13:08.541Z,2.00
2023-06-30T05:15:37.609Z,1.85
2023-06-30T05:18:07.764Z,2.60
2023-06-30T05:20:38.610Z,2.30
2023-06-30T05:23:07.786Z,2.40
2023-06-30T05:25:36.858Z,2.35
2023-06-30T05:28:05.987Z,2.30
2023-06-30T05:30:35.001Z,1.77
2023-06-30T05:33:06.730Z,2.30
2023-06-30T05:35:35.826Z,2.38
2023-06-30T05:38:04.993Z,2.20
2023-06-30T05:40:33.968Z,1.90
2023-06-30T05:43:02.951Z,1.80
2023-06-30T05:45:31.859Z,1.90
2023-06-30T05:48:00.779Z,2.67
2023-06-30T05:50:30.962Z,2.30
2023-06-30T05:52:59.916Z,1.75
2023-06-30T05:55:29.028Z,1.80
2023-06-30T05:57:57.804Z,1.75
2023-06-30T06:00:27.146Z,1.45
2023-06-30T06:02:56.752Z,1.88
2023-06-30T06:05:26.178Z,1.70
2023-06-30T06:07:55.125Z,3.13
2023-06-30T06:10:24.072Z,6.18
2023-06-30T06:12:56.332Z,1.80
2023-06-30T06:15:25.202Z,7.55
2023-06-30T06:17:54.228Z,1.67
2023-06-30T06:20:23.201Z,1.55
2023-06-30T06:22:51.961Z,4.68
2023-06-30T06:25:20.975Z,3.58
2023-06-30T06:27:49.860Z,2.95
2023-06-30T06:30:18.718Z,1.80
2023-06-30T06:32:47.584Z,1.58
2023-06-30T06:35:17.032Z,1.70
2023-06-30T06:37:45.830Z,2.38
2023-06-30T06:40:15.825Z,1.30
2023-06-30T06:42:44.957Z,1.45
2023-06-30T06:45:14.372Z,1.20
2023-06-30T06:48:21.350Z,1.60
2023-06-30T06:50:55.082Z,1.65
2023-06-30T06:53:31.575Z,2.03
2023-06-30T06:56:00.791Z,2.47
2023-06-30T06:58:34.872Z,1.85
2023-06-30T07:01:03.868Z,1.67
2023-06-30T07:03:33.096Z,1.33
2023-06-30T07:06:02.492Z,1.08
2023-06-30T07:08:36.858Z,1.30
2023-06-30T07:13:35.589Z,1.85
2023-06-30T07:16:05.105Z,1.50
2023-06-30T07:18:34.743Z,1.30
2023-06-30T07:21:04.137Z,1.27
2023-06-30T07:23:33.197Z,1.52
2023-06-30T07:26:02.741Z,1.70
2023-06-30T07:28:33.184Z,1.42
2023-06-30T07:31:02.482Z,4.85
2023-06-30T07:33:31.549Z,2.50
2023-06-30T07:36:00.682Z,4.32
2023-06-30T07:38:29.597Z,2.03
2023-06-30T07:40:59.203Z,4.03
2023-06-30T07:43:28.725Z,2.10
2023-06-30T07:45:58.429Z,2.92
2023-06-30T07:48:28.202Z,9.43
2023-06-30T07:51:08.583Z,2.50
2023-06-30T07:53:40.207Z,4.95
2023-06-30T07:56:09.267Z,6.45
2023-06-30T07:58:38.649Z,1.70
2023-06-30T08:01:07.786Z,2.70
2023-06-30T08:03:36.950Z,3.20
2023-06-30T08:06:06.380Z,1.80
2023-06-30T08:08:35.771Z,3.33
2023-06-30T08:11:05.109Z,1.45
2023-06-30T08:13:34.108Z,6.45
2023-06-30T08:16:03.901Z,2.42
2023-06-30T08:18:34.371Z,4.80
2023-06-30T08:21:05.113Z,6.00
2023-06-30T08:23:33.920Z,1.73
2023-06-30T08:26:02.989Z,9.60
2023-06-30T08:28:31.940Z,1.77
2023-06-30T08:31:00.927Z,1.70
2023-06-30T08:36:03.716Z,2.40
2023-06-30T08:38:32.532Z,4.40
2023-06-30T08:41:02.387Z,5.95
2023-06-30T08:43:35.167Z,12.32
2023-06-30T08:46:05.600Z,21.38
2023-06-30T08:48:35.788Z,7.43
2023-06-30T08:51:06.334Z,11.52
2023-06-30T08:53:36.036Z,3.00
2023-06-30T08:56:06.038Z,2.05
2023-06-30T08:58:35.299Z,2.83
2023-06-30T09:01:04.873Z,1.55
2023-06-30T09:03:34.317Z,3.65
2023-06-30T09:06:04.251Z,2.13
2023-06-30T09:08:46.168Z,4.63
2023-06-30T09:11:18.623Z,5.72
2023-06-30T09:13:49.697Z,2.65
2023-06-30T09:16:20.172Z,1.40
2023-06-30T09:18:50.383Z,3.50
2023-06-30T09:21:20.517Z,1.40
2023-06-30T09:23:54.009Z,2.40
2023-06-30T09:26:22.909Z,1.77
2023-06-30T09:28:56.843Z,3.00
2023-06-30T09:31:36.709Z,2.40
2023-06-30T09:34:15.661Z,1.70
2023-06-30T09:36:51.281Z,1.63
2023-06-30T09:39:20.797Z,1.60
2023-06-30T09:41:51.579Z,3.47
2023-06-30T09:44:22.189Z,1.95
2023-06-30T09:46:55.675Z,2.30
2023-06-30T09:49:29.012Z,2.50
2023-06-30T09:51:59.265Z,1.50
2023-06-30T09:54:43.713Z,1.50
2023-06-30T09:57:13.965Z,1.80
2023-06-30T09:59:42.878Z,2.08
2023-06-30T10:02:12.183Z,3.00
2023-06-30T10:04:41.618Z,4.05
2023-06-30T10:07:13.232Z,2.40
2023-06-30T10:09:47.309Z,3.58
2023-06-30T10:12:23.760Z,2.25
2023-06-30T10:14:54.081Z,13.25
2023-06-30T10:17:23.130Z,1.65
2023-06-30T10:19:52.960Z,1.55
2023-06-30T10:22:24.043Z,2.35
2023-06-30T10:24:56.513Z,1.95
2023-06-30T10:27:26.071Z,1.88
2023-06-30T10:29:56.372Z,2.15
2023-06-30T10:32:25.454Z,2.08
2023-06-30T10:34:55.400Z,2.03
2023-06-30T10:37:24.779Z,3.92
2023-06-30T10:39:54.111Z,1.48
2023-06-30T10:42:22.885Z,1.40
2023-06-30T10:44:51.700Z,2.05
2023-06-30T10:47:25.184Z,1.52
2023-06-30T10:49:55.972Z,1.40
2023-06-30T10:52:29.916Z,1.30
2023-06-30T10:55:07.970Z,2.80
2023-06-30T10:57:41.420Z,2.28
2023-06-30T11:00:16.487Z,2.20
2023-06-30T11:03:01.600Z,3.83
2023-06-30T11:05:33.701Z,1.70
2023-06-30T11:08:11.242Z,5.32
2023-06-30T11:10:47.991Z,2.65
2023-06-30T11:13:17.044Z,3.70
2023-06-30T11:15:53.338Z,1.98
2023-06-30T11:18:24.791Z,1.67
2023-06-30T11:21:04.995Z,2.03
2023-06-30T11:23:44.752Z,2.00
2023-06-30T11:26:21.452Z,3.22
2023-06-30T11:28:50.746Z,2.00
2023-06-30T11:31:20.161Z,2.00
2023-06-30T11:33:49.205Z,2.58
2023-06-30T11:36:19.438Z,2.30
2023-06-30T11:38:49.984Z,1.42
2023-06-30T11:41:25.362Z,1.40
2023-06-30T11:43:57.362Z,1.80
2023-06-30T11:46:26.436Z,1.50
2023-06-30T11:48:55.590Z,1.42
2023-06-30T11:51:24.944Z,2.33
2023-06-30T11:53:54.589Z,1.30
2023-06-30T11:56:24.154Z,3.80
2023-06-30T11:58:54.393Z,2.10
2023-06-30T12:01:23.359Z,2.15
2023-06-30T12:04:24.845Z,2.92
2023-06-30T12:06:57.530Z,1.25
2023-06-30T12:09:27.589Z,2.05
2023-06-30T12:12:02.358Z,3.03
2023-06-30T12:14:31.551Z,2.10
2023-06-30T12:17:00.942Z,1.83
2023-06-30T12:19:30.098Z,2.10
2023-06-30T12:22:05.338Z,4.20
2023-06-30T12:24:36.228Z,1.80
2023-06-30T12:27:07.526Z,5.53
2023-06-30T12:29:38.077Z,1.63
2023-06-30T12:32:19.250Z,2.20
2023-06-30T12:34:48.385Z,2.25
2023-06-30T12:37:21.693Z,3.03
2023-06-30T12:39:50.312Z,1.98
2023-06-30T12:42:20.161Z,3.70
2023-06-30T12:44:49.206Z,1.70
2023-06-30T12:47:18.132Z,2.40
2023-06-30T12:49:47.009Z,3.83
2023-06-30T12:52:17.654Z,6.05
2023-06-30T12:54:47.548Z,2.95
2023-06-30T12:57:16.219Z,4.93
2023-06-30T12:59:45.592Z,2.58
2023-06-30T13:02:15.155Z,4.75
2023-06-30T13:04:43.839Z,7.10
2023-06-30T13:07:14.974Z,5.00
2023-06-30T13:09:44.248Z,3.08
2023-06-30T13:12:13.354Z,3.15
2023-06-30T13:14:45.108Z,2.45
2023-06-30T13:17:16.899Z,1.40
2023-06-30T13:19:46.547Z,2.38
2023-06-30T13:22:17.016Z,3.15
2023-06-30T13:24:46.543Z,1.80
2023-06-30T13:27:16.068Z,2.20
2023-06-30T13:29:51.987Z,2.15
2023-06-30T13:32:21.533Z,3.25
2023-06-30T13:34:50.783Z,6.07
2023-06-30T13:37:20.257Z,2.17
2023-06-30T13:39:49.693Z,2.50
2023-06-30T13:42:18.609Z,3.92
2023-06-30T13:44:47.909Z,7.45
2023-06-30T13:47:16.754Z,10.98
2023-06-30T13:49:45.702Z,16.58
2023-06-30T13:52:17.660Z,3.45
2023-06-30T13:54:46.502Z,14.70
2023-06-30T13:57:15.437Z,6.60
2023-06-30T13:59:44.716Z,2.40
2023-06-30T14:02:14.154Z,7.18
2023-06-30T14:04:43.233Z,2.70
2023-06-30T14:07:14.248Z,4.10
2023-06-30T14:09:43.361Z,7.50
2023-06-30T14:12:12.378Z,7.97
2023-06-30T14:14:41.174Z,4.75
2023-06-30T14:17:10.207Z,5.78
2023-06-30T14:19:39.481Z,18.05
2023-06-30T14:22:11.126Z,8.90
2023-06-30T14:24:40.494Z,3.80
2023-06-30T14:27:09.902Z,19.77
2023-06-30T14:29:46.488Z,10.43
2023-06-30T14:32:15.303Z,13.02
2023-06-30T14:34:44.159Z,6.70
2023-06-30T14:37:13.137Z,34.53
2023-06-30T14:39:42.201Z,4.90
2023-06-30T14:42:22.917Z,4.00
2023-06-30T14:45:00.291Z,33.92
2023-06-30T14:47:30.016Z,8.20
2023-06-30T14:49:59.277Z,7.40
2023-06-30T14:52:28.171Z,19.58
2023-06-30T14:54:57.071Z,42.33
2023-06-30T14:57:25.879Z,5.07
2023-06-30T14:59:54.816Z,43.25
2023-06-30T15:02:25.888Z,11.15
2023-06-30T15:04:55.023Z,8.25
2023-06-30T15:07:24.069Z,8.80
2023-06-30T15:09:53.391Z,34.90
2023-06-30T15:12:22.199Z,58.90
2023-06-30T15:14:53.618Z,23.98
2023-06-30T15:17:25.950Z,8.43
2023-06-30T15:19:54.904Z,18.65
2023-06-30T15:22:23.966Z,30.58
2023-06-30T15:24:53.229Z,12.80
2023-06-30T15:27:22.562Z,17.08
2023-06-30T15:29:51.184Z,8.52
2023-06-30T15:32:20.501Z,10.27
2023-06-30T15:34:49.264Z,11.45
2023-06-30T15:37:18.757Z,18.95
2023-06-30T15:39:49.181Z,22.42
2023-06-30T15:42:18.439Z,24.65
2023-06-30T15:44:47.242Z,22.70
2023-06-30T15:47:16.558Z,20.80
2023-06-30T15:49:47.017Z,22.92
2023-06-30T15:52:15.811Z,32.33
2023-06-30T15:54:45.164Z,27.77
2023-06-30T15:57:16.827Z,33.40
2023-06-30T15:59:45.662Z,35.13
2023-06-30T16:02:14.648Z,30.90
2023-06-30T16:04:43.818Z,32.78
2023-06-30T16:07:12.864Z,27.42
2023-06-30T16:09:41.938Z,25.38
2023-06-30T16:12:11.916Z,25.05
2023-06-30T16:14:41.499Z,23.02
2023-06-30T16:17:10.966Z,20.02
2023-06-30T16:19:40.576Z,21.67
2023-06-30T16:22:10.508Z,16.13
2023-06-30T16:24:42.518Z,19.60
2023-06-30T16:27:13.420Z,16.63
2023-06-30T16:29:43.008Z,17.25
2023-06-30T16:32:12.097Z,20.85
2023-06-30T16:34:41.550Z,17.70
2023-06-30T16:37:10.838Z,23.67
2023-06-30T16:39:40.222Z,22.88
2023-06-30T16:42:09.723Z,25.15
2023-06-30T16:44:39.064Z,17.35
2023-06-30T16:47:08.543Z,54.47
2023-06-30T16:49:38.615Z,18.42
2023-06-30T16:52:08.106Z,16.45
2023-06-30T16:54:37.030Z,16.10
2023-06-30T16:57:06.751Z,14.10
2023-06-30T16:59:35.749Z,13.55
2023-06-30T17:02:07.375Z,13.82
2023-06-30T17:04:39.494Z,12.77
2023-06-30T17:07:10.368Z,13.25
2023-06-30T17:09:39.837Z,13.30
2023-06-30T17:12:09.324Z,12.95
2023-06-30T17:14:38.345Z,10.52
2023-06-30T17:17:07.854Z,10.95
2023-06-30T17:19:36.692Z,8.38
2023-06-30T17:22:05.474Z,8.77
2023-06-30T17:24:34.857Z,10.02
2023-06-30T17:27:03.621Z,9.00
2023-06-30T17:29:32.605Z,7.90
2023-06-30T17:32:04.202Z,8.93
2023-06-30T17:34:32.788Z,7.75
2023-06-30T17:37:03.357Z,9.75
2023-06-30T17:39:34.076Z,8.93
2023-06-30T17:42:02.960Z,7.80
2023-06-30T17:44:32.427Z,9.25
2023-06-30T17:47:02.358Z,10.13
2023-06-30T17:49:34.997Z,10.63
2023-06-30T17:52:06.436Z,10.75
2023-06-30T17:54:38.465Z,10.27
2023-06-30T17:57:08.769Z,10.77
2023-06-30T17:59:37.556Z,11.52
2023-06-30T18:02:06.687Z,14.35
2023-06-30T18:04:38.018Z,15.73
2023-06-30T18:07:08.972Z,16.27
2023-06-30T18:09:40.660Z,22.30
2023-06-30T18:12:11.696Z,24.75
2023-06-30T18:14:42.742Z,23.52
2023-06-30T18:17:11.983Z,19.08
2023-06-30T18:19:44.331Z,19.55
2023-06-30T18:22:15.082Z,20.15
2023-06-30T18:24:43.658Z,19.85
2023-06-30T18:27:12.901Z,21.75
2023-06-30T18:29:43.845Z,21.45
2023-06-30T18:32:12.856Z,21.02
2023-06-30T18:34:46.176Z,20.45
2023-06-30T18:37:15.800Z,20.98
2023-06-30T18:39:44.908Z,19.85
2023-06-30T18:42:13.787Z,20.70
2023-06-30T18:44:43.762Z,20.80
2023-06-30T18:47:12.389Z,20.65
2023-06-30T18:49:41.174Z,18.95
2023-06-30T18:52:09.755Z,19.85
2023-06-30T18:54:38.695Z,21.20
2023-06-30T18:57:07.677Z,21.35
2023-06-30T18:59:36.249Z,24.98
2023-06-30T19:02:05.310Z,24.77
2023-06-30T19:04:34.440Z,26.05
2023-06-30T19:07:04.059Z,27.13
2023-06-30T19:09:35.624Z,25.23
2023-06-30T19:12:05.326Z,23.27
2023-06-30T19:14:35.942Z,21.65
2023-06-30T19:17:06.025Z,25.58
2023-06-30T19:19:35.183Z,22.10
2023-06-30T19:22:04.165Z,20.23
2023-06-30T19:24:33.880Z,20.30
2023-06-30T19:27:02.642Z,22.00
2023-06-30T19:29:32.585Z,21.90
2023-06-30T19:32:01.740Z,23.00
2023-06-30T19:34:30.581Z,33.75
2023-06-30T19:37:00.991Z,27.50
2023-06-30T19:39:35.978Z,26.50
2023-06-30T19:42:05.701Z,27.40
2023-06-30T19:44:34.562Z,26.10
2023-06-30T19:47:03.886Z,23.15
2023-06-30T19:49:32.741Z,21.80
2023-06-30T19:52:02.041Z,19.33
2023-06-30T19:54:31.264Z,19.23
2023-06-30T19:57:00.162Z,23.92
2023-06-30T19:59:29.210Z,17.70
2023-06-30T20:01:59.931Z,18.83
2023-06-30T20:04:29.542Z,19.98
2023-06-30T20:06:58.425Z,18.27
2023-06-30T20:09:27.120Z,18.88
2023-06-30T20:11:56.181Z,18.05
2023-06-30T20:14:24.868Z,18.98
2023-06-30T20:16:53.902Z,23.00
2023-06-30T20:19:22.945Z,19.50
2023-06-30T20:21:51.950Z,18.65
2023-06-30T20:24:20.899Z,18.65
2023-06-30T20:26:49.581Z,17.70
2023-06-30T20:29:18.460Z,18.73
2023-06-30T20:31:47.350Z,22.02
2023-06-30T20:34:16.224Z,27.38
2023-06-30T20:36:45.204Z,31.38
2023-06-30T20:39:13.928Z,18.10
2023-06-30T20:41:42.787Z,47.83
2023-06-30T20:44:15.050Z,17.58
2023-06-30T20:46:43.962Z,26.13
2023-06-30T20:49:12.950Z,18.23
2023-06-30T20:51:41.944Z,16.77
2023-06-30T20:54:10.783Z,17.40
2023-06-30T20:56:39.732Z,16.85
2023-06-30T20:59:08.403Z,15.68
2023-06-30T21:01:37.430Z,25.33
2023-06-30T21:04:06.504Z,17.10
2023-06-30T21:06:36.814Z,21.77
2023-06-30T21:09:06.963Z,16.02
2023-06-30T21:11:35.907Z,13.93
2023-06-30T21:14:04.907Z,14.85
2023-06-30T21:16:33.789Z,15.20
2023-06-30T21:19:02.717Z,15.70
2023-06-30T21:21:32.344Z,14.93
2023-06-30T21:24:01.351Z,28.13
2023-06-30T21:26:30.156Z,17.15
2023-06-30T21:28:58.922Z,14.52
2023-06-30T21:31:27.705Z,14.88
2023-06-30T21:33:56.683Z,15.27
2023-06-30T21:36:25.457Z,16.33
2023-06-30T21:38:54.391Z,17.58
2023-06-30T21:41:23.660Z,15.20
2023-06-30T21:43:52.507Z,15.65
2023-06-30T21:46:21.495Z,14.95
2023-06-30T21:48:54.527Z,15.43
2023-06-30T21:51:23.464Z,15.82
2023-06-30T21:53:53.283Z,15.77
2023-06-30T21:56:22.285Z,14.57
2023-06-30T21:58:52.564Z,14.98
2023-06-30T22:01:28.766Z,15.40
2023-06-30T22:04:05.482Z,16.80
2023-06-30T22:06:34.615Z,21.67
2023-06-30T22:09:11.254Z,16.25
2023-06-30T22:11:44.951Z,18.83
2023-06-30T22:14:14.240Z,13.75
2023-06-30T22:16:43.797Z,13.70
2023-06-30T22:19:13.168Z,18.50
2023-06-30T22:21:42.766Z,14.00
2023-06-30T22:24:11.505Z,15.73
2023-06-30T22:26:40.256Z,34.38
2023-06-30T22:29:09.205Z,18.05
2023-06-30T22:31:38.300Z,15.25
2023-06-30T22:34:07.639Z,26.48
2023-06-30T22:36:39.294Z,13.25
2023-06-30T22:39:08.294Z,12.55
2023-06-30T22:41:37.019Z,13.23
2023-06-30T22:44:05.814Z,14.13
2023-06-30T22:46:34.620Z,15.73
2023-06-30T22:49:05.264Z,14.63
2023-06-30T22:51:34.175Z,13.25
2023-06-30T22:54:02.957Z,24.73
2023-06-30T22:56:31.647Z,14.10
2023-06-30T22:59:00.263Z,13.13
2023-06-30T23:01:29.145Z,13.50
2023-06-30T23:04:00.783Z,13.00
2023-06-30T23:09:08.016Z,11.65
2023-06-30T23:11:37.804Z,11.57
2023-06-30T23:14:07.073Z,11.20
2023-06-30T23:16:39.144Z,10.40
2023-06-30T23:19:09.385Z,10.90
2023-06-30T23:21:39.324Z,9.48
2023-06-30T23:24:12.222Z,9.90
2023-06-30T23:26:42.833Z,9.45
2023-06-30T23:29:11.598Z,9.60
2023-06-30T23:31:40.903Z,8.48
2023-06-30T23:34:09.779Z,8.80
2023-06-30T23:36:38.865Z,8.20
2023-06-30T23:39:07.583Z,9.98
2023-06-30T23:41:36.390Z,8.07
2023-06-30T23:44:05.281Z,8.57
2023-06-30T23:46:33.961Z,8.45
2023-06-30T23:49:02.754Z,8.15
2023-06-30T23:51:31.672Z,8.55
2023-06-30T23:54:00.495Z,8.30
2023-06-30T23:56:29.134Z,8.25
2023-06-30T23:58:58.664Z,8.05
